Messwerte Champaign

Temperatur

Temperatur
°C
1603090800 2.00 2.00 5
1603094400 3.00 3.00 5
1603098000 4.00 4.00
1603101600 5.00 5.00
1603105200 6.00 6.00
1603108800 7.00 7.00
1603112400 8.00 8.00 6
1603116000 9.00 9.00 6
1603119600 10.00 10.00 7
1603123200 11.00 11.00 9
1603126800 12.00 12.00 9
1603130400 13.00 13.00 10
1603134000 14.00 14.00 11
1603137600 15.00 15.00 11
1603141200 16.00 16.00 10
1603144800 17.00 17.00 9
1603148400 18.00 18.00 8
1603152000 19.00 19.00 8
1603155600 20.00 20.00 8
1603159200 21.00 21.00 8
1603162800 22.00 22.00 8
1603166400 23.00 23.00
1603170000 0.00 0.00 8
1603173600 1.00 1.00 8

Aktuellste Messwerte

Wettercharakter
Wetter: bedeckt
Temperatur
8 °C
Feuchtigkeit
75 %
Wind
20 km/hWindrichtung: Nordost
Luftdruck
1021 hPa
Messzeit: 20. Oktober 2020, 2.00Datenquelle: METAR

Weitere Messstationen in der Nähe

Messstation Temperatur Entfernung
Rantoul 7 °C 30 km
Decatur 8 °C 55 km
Danville 7 °C 60 km
Mattoon / Charleston 7 °C 62 km
Paris 8 °C 64 km
Bloomington 6 °C 73 km
Lincoln 7 °C 91 km

Wind

Windrichtung Böen Mittelwind
° km/h km/h
1603090800 2.00 1.00 - 2.00 360° 20
1603094400 3.00 2.00 - 3.00 360° 20
1603098000 4.00 3.00 - 4.00
1603101600 5.00 4.00 - 5.00
1603105200 6.00 5.00 - 6.00
1603108800 7.00 6.00 - 7.00
1603112400 8.00 7.00 - 8.00 20° 20
1603116000 9.00 8.00 - 9.00 30° 20
1603119600 10.00 9.00 - 10.00 50° 20
1603123200 11.00 10.00 - 11.00 70° 25
1603126800 12.00 11.00 - 12.00 70° 20
1603130400 13.00 12.00 - 13.00 80° 20
1603134000 14.00 13.00 - 14.00 50° 15
1603137600 15.00 14.00 - 15.00 30° 20
1603141200 16.00 15.00 - 16.00 10° 15
1603144800 17.00 16.00 - 17.00 10° 20
1603148400 18.00 17.00 - 18.00 30° 20
1603152000 19.00 18.00 - 19.00 50° 20
1603155600 20.00 19.00 - 20.00 60° 20
1603159200 21.00 20.00 - 21.00 50° 10
1603162800 22.00 21.00 - 22.00 50° 15
1603166400 23.00 22.00 - 23.00
1603170000 0.00 23.00 - 0.00 30° 15
1603173600 1.00 0.00 - 1.00 50° 20

Ihre Wetterstation

Fehlt Ihre Wetterstation auf unserem Portal?

Schreiben Sie an network@meteonews.ch

Klima

Wann ist es am wärmsten? Wann regnet es am wenigsten? Unsere Klimadaten geben Auskunft.